sensor_id;sensor_type;location;lat;lon;timestamp;P1;durP1;ratioP1;P2;durP2;ratioP2
15990;SDS011;8100;50.994;4.538;2024-02-16T00:02:26;3.88;;;1.67;;
15990;SDS011;8100;50.994;4.538;2024-02-16T00:05:13;4.10;;;1.73;;
15990;SDS011;8100;50.994;4.538;2024-02-16T00:08:01;2.03;;;1.50;;
15990;SDS011;8100;50.994;4.538;2024-02-16T00:10:48;3.53;;;1.60;;
15990;SDS011;8100;50.994;4.538;2024-02-16T00:13:35;1.95;;;1.40;;
15990;SDS011;8100;50.994;4.538;2024-02-16T00:16:23;2.35;;;1.30;;
15990;SDS011;8100;50.994;4.538;2024-02-16T00:19:09;4.13;;;1.55;;
15990;SDS011;8100;50.994;4.538;2024-02-16T00:25:03;2.45;;;1.52;;
15990;SDS011;8100;50.994;4.538;2024-02-16T00:27:51;3.17;;;1.48;;
15990;SDS011;8100;50.994;4.538;2024-02-16T00:30:39;4.55;;;1.50;;
15990;SDS011;8100;50.994;4.538;2024-02-16T00:33:26;2.72;;;1.55;;
15990;SDS011;8100;50.994;4.538;2024-02-16T00:39:20;5.15;;;1.60;;
15990;SDS011;8100;50.994;4.538;2024-02-16T00:42:08;3.70;;;1.45;;
15990;SDS011;8100;50.994;4.538;2024-02-16T00:44:56;3.95;;;1.50;;
15990;SDS011;8100;50.994;4.538;2024-02-16T00:47:45;2.42;;;1.40;;
15990;SDS011;8100;50.994;4.538;2024-02-16T00:50:51;4.22;;;1.83;;
15990;SDS011;8100;50.994;4.538;2024-02-16T00:53:38;2.42;;;1.50;;
15990;SDS011;8100;50.994;4.538;2024-02-16T00:56:25;2.58;;;1.60;;
15990;SDS011;8100;50.994;4.538;2024-02-16T00:59:14;3.15;;;1.60;;
15990;SDS011;8100;50.994;4.538;2024-02-16T01:02:01;4.40;;;1.77;;
15990;SDS011;8100;50.994;4.538;2024-02-16T01:04:48;2.10;;;1.10;;
15990;SDS011;8100;50.994;4.538;2024-02-16T01:07:36;4.28;;;1.83;;
15990;SDS011;8100;50.994;4.538;2024-02-16T01:10:24;3.58;;;1.70;;
15990;SDS011;8100;50.994;4.538;2024-02-16T01:13:11;2.17;;;1.42;;
15990;SDS011;8100;50.994;4.538;2024-02-16T01:15:59;3.83;;;1.88;;
15990;SDS011;8100;50.994;4.538;2024-02-16T01:18:46;5.07;;;1.80;;
15990;SDS011;8100;50.994;4.538;2024-02-16T01:21:33;3.42;;;2.00;;
15990;SDS011;8100;50.994;4.538;2024-02-16T01:24:20;4.07;;;1.70;;
15990;SDS011;8100;50.994;4.538;2024-02-16T01:27:07;4.30;;;1.80;;
15990;SDS011;8100;50.994;4.538;2024-02-16T01:29:56;5.38;;;1.73;;
15990;SDS011;8100;50.994;4.538;2024-02-16T01:32:44;2.97;;;1.92;;
15990;SDS011;8100;50.994;4.538;2024-02-16T01:35:31;3.17;;;1.63;;
15990;SDS011;8100;50.994;4.538;2024-02-16T01:38:18;3.72;;;1.85;;
15990;SDS011;8100;50.994;4.538;2024-02-16T01:41:06;4.50;;;2.20;;
15990;SDS011;8100;50.994;4.538;2024-02-16T01:43:54;3.22;;;1.90;;
15990;SDS011;8100;50.994;4.538;2024-02-16T01:46:41;3.67;;;2.20;;
15990;SDS011;8100;50.994;4.538;2024-02-16T01:49:29;6.30;;;2.25;;
15990;SDS011;8100;50.994;4.538;2024-02-16T01:52:16;3.55;;;2.10;;
15990;SDS011;8100;50.994;4.538;2024-02-16T01:55:04;3.38;;;1.88;;
15990;SDS011;8100;50.994;4.538;2024-02-16T01:57:54;4.93;;;2.10;;
15990;SDS011;8100;50.994;4.538;2024-02-16T02:00:42;4.88;;;2.00;;
15990;SDS011;8100;50.994;4.538;2024-02-16T02:03:29;3.08;;;1.73;;
15990;SDS011;8100;50.994;4.538;2024-02-16T02:06:18;5.07;;;1.73;;
15990;SDS011;8100;50.994;4.538;2024-02-16T02:09:04;2.17;;;1.70;;
15990;SDS011;8100;50.994;4.538;2024-02-16T02:11:52;2.28;;;1.70;;
15990;SDS011;8100;50.994;4.538;2024-02-16T02:14:39;3.03;;;1.90;;
15990;SDS011;8100;50.994;4.538;2024-02-16T02:17:27;2.60;;;1.88;;
15990;SDS011;8100;50.994;4.538;2024-02-16T02:20:14;3.75;;;1.60;;
15990;SDS011;8100;50.994;4.538;2024-02-16T02:23:02;3.95;;;1.65;;
15990;SDS011;8100;50.994;4.538;2024-02-16T02:25:49;2.42;;;1.45;;
15990;SDS011;8100;50.994;4.538;2024-02-16T02:31:41;3.50;;;1.90;;
15990;SDS011;8100;50.994;4.538;2024-02-16T02:34:28;3.22;;;1.55;;
15990;SDS011;8100;50.994;4.538;2024-02-16T02:37:34;3.97;;;1.70;;
15990;SDS011;8100;50.994;4.538;2024-02-16T02:40:22;2.35;;;1.40;;
15990;SDS011;8100;50.994;4.538;2024-02-16T02:43:09;4.75;;;1.95;;
15990;SDS011;8100;50.994;4.538;2024-02-16T02:45:56;3.22;;;1.63;;
15990;SDS011;8100;50.994;4.538;2024-02-16T02:48:43;3.55;;;1.60;;
15990;SDS011;8100;50.994;4.538;2024-02-16T02:51:31;5.00;;;2.03;;
15990;SDS011;8100;50.994;4.538;2024-02-16T02:54:18;3.45;;;1.70;;
15990;SDS011;8100;50.994;4.538;2024-02-16T02:57:06;4.35;;;1.80;;
15990;SDS011;8100;50.994;4.538;2024-02-16T02:59:53;3.28;;;1.35;;
15990;SDS011;8100;50.994;4.538;2024-02-16T03:02:51;2.83;;;1.70;;
15990;SDS011;8100;50.994;4.538;2024-02-16T03:05:41;3.05;;;1.60;;
15990;SDS011;8100;50.994;4.538;2024-02-16T03:08:28;2.85;;;1.50;;
15990;SDS011;8100;50.994;4.538;2024-02-16T03:11:15;2.75;;;1.77;;
15990;SDS011;8100;50.994;4.538;2024-02-16T03:14:03;2.83;;;1.70;;
15990;SDS011;8100;50.994;4.538;2024-02-16T03:16:51;3.05;;;1.65;;
15990;SDS011;8100;50.994;4.538;2024-02-16T03:19:38;5.65;;;1.75;;
15990;SDS011;8100;50.994;4.538;2024-02-16T03:22:25;3.13;;;1.38;;
15990;SDS011;8100;50.994;4.538;2024-02-16T03:25:12;3.72;;;1.70;;
15990;SDS011;8100;50.994;4.538;2024-02-16T03:27:59;3.25;;;1.90;;
15990;SDS011;8100;50.994;4.538;2024-02-16T03:30:48;4.10;;;1.60;;
15990;SDS011;8100;50.994;4.538;2024-02-16T03:33:35;3.13;;;2.00;;
15990;SDS011;8100;50.994;4.538;2024-02-16T03:36:41;4.03;;;1.88;;
15990;SDS011;8100;50.994;4.538;2024-02-16T03:39:27;3.40;;;1.70;;
15990;SDS011;8100;50.994;4.538;2024-02-16T03:42:14;2.35;;;1.55;;
15990;SDS011;8100;50.994;4.538;2024-02-16T03:45:02;7.57;;;2.17;;
15990;SDS011;8100;50.994;4.538;2024-02-16T03:47:51;3.35;;;1.88;;
15990;SDS011;8100;50.994;4.538;2024-02-16T03:50:38;4.03;;;1.92;;
15990;SDS011;8100;50.994;4.538;2024-02-16T03:53:25;3.65;;;1.80;;
15990;SDS011;8100;50.994;4.538;2024-02-16T03:56:12;3.10;;;1.80;;
15990;SDS011;8100;50.994;4.538;2024-02-16T03:59:04;4.53;;;1.92;;
15990;SDS011;8100;50.994;4.538;2024-02-16T04:01:51;5.30;;;1.63;;
15990;SDS011;8100;50.994;4.538;2024-02-16T04:04:40;2.83;;;1.67;;
15990;SDS011;8100;50.994;4.538;2024-02-16T04:07:27;7.80;;;2.05;;
15990;SDS011;8100;50.994;4.538;2024-02-16T04:10:13;4.45;;;1.90;;
15990;SDS011;8100;50.994;4.538;2024-02-16T04:13:00;4.22;;;1.88;;
15990;SDS011;8100;50.994;4.538;2024-02-16T04:15:48;4.25;;;1.73;;
15990;SDS011;8100;50.994;4.538;2024-02-16T04:18:35;5.50;;;1.65;;
15990;SDS011;8100;50.994;4.538;2024-02-16T04:21:41;3.30;;;1.50;;
15990;SDS011;8100;50.994;4.538;2024-02-16T04:27:33;4.32;;;1.90;;
15990;SDS011;8100;50.994;4.538;2024-02-16T04:30:20;4.13;;;1.95;;
15990;SDS011;8100;50.994;4.538;2024-02-16T04:36:31;2.70;;;1.60;;
15990;SDS011;8100;50.994;4.538;2024-02-16T04:42:26;4.00;;;1.98;;
15990;SDS011;8100;50.994;4.538;2024-02-16T04:45:13;5.15;;;1.98;;
15990;SDS011;8100;50.994;4.538;2024-02-16T04:48:20;3.25;;;1.48;;
15990;SDS011;8100;50.994;4.538;2024-02-16T04:51:07;3.45;;;1.30;;
15990;SDS011;8100;50.994;4.538;2024-02-16T04:53:54;5.82;;;1.85;;
15990;SDS011;8100;50.994;4.538;2024-02-16T04:56:42;5.93;;;2.05;;
15990;SDS011;8100;50.994;4.538;2024-02-16T04:59:29;3.88;;;1.65;;
15990;SDS011;8100;50.994;4.538;2024-02-16T05:05:22;4.07;;;1.80;;
15990;SDS011;8100;50.994;4.538;2024-02-16T05:08:09;5.18;;;2.03;;
15990;SDS011;8100;50.994;4.538;2024-02-16T05:10:56;4.18;;;1.60;;
15990;SDS011;8100;50.994;4.538;2024-02-16T05:13:45;6.03;;;1.98;;
15990;SDS011;8100;50.994;4.538;2024-02-16T05:16:31;3.40;;;1.70;;
15990;SDS011;8100;50.994;4.538;2024-02-16T05:19:18;5.93;;;1.63;;
15990;SDS011;8100;50.994;4.538;2024-02-16T05:22:05;2.53;;;1.48;;
15990;SDS011;8100;50.994;4.538;2024-02-16T05:24:52;3.65;;;1.63;;
15990;SDS011;8100;50.994;4.538;2024-02-16T05:27:39;4.80;;;1.80;;
15990;SDS011;8100;50.994;4.538;2024-02-16T05:30:28;3.90;;;1.92;;
15990;SDS011;8100;50.994;4.538;2024-02-16T05:33:32;3.28;;;1.90;;
15990;SDS011;8100;50.994;4.538;2024-02-16T05:36:19;4.70;;;1.90;;
15990;SDS011;8100;50.994;4.538;2024-02-16T05:39:10;5.25;;;2.05;;
15990;SDS011;8100;50.994;4.538;2024-02-16T05:42:05;3.72;;;1.98;;
15990;SDS011;8100;50.994;4.538;2024-02-16T05:44:52;3.63;;;1.73;;
15990;SDS011;8100;50.994;4.538;2024-02-16T05:47:40;5.18;;;1.60;;
15990;SDS011;8100;50.994;4.538;2024-02-16T05:50:28;3.75;;;1.58;;
15990;SDS011;8100;50.994;4.538;2024-02-16T05:53:15;2.33;;;1.60;;
15990;SDS011;8100;50.994;4.538;2024-02-16T05:56:04;7.80;;;1.85;;
15990;SDS011;8100;50.994;4.538;2024-02-16T05:58:51;4.45;;;1.77;;
15990;SDS011;8100;50.994;4.538;2024-02-16T06:01:38;5.05;;;2.40;;
15990;SDS011;8100;50.994;4.538;2024-02-16T06:04:27;5.32;;;1.70;;
15990;SDS011;8100;50.994;4.538;2024-02-16T06:07:14;3.40;;;2.03;;
15990;SDS011;8100;50.994;4.538;2024-02-16T06:10:01;4.05;;;1.73;;
15990;SDS011;8100;50.994;4.538;2024-02-16T06:12:50;10.82;;;2.38;;
15990;SDS011;8100;50.994;4.538;2024-02-16T06:15:37;8.07;;;2.45;;
15990;SDS011;8100;50.994;4.538;2024-02-16T06:18:24;4.45;;;2.28;;
15990;SDS011;8100;50.994;4.538;2024-02-16T06:21:15;5.53;;;2.30;;
15990;SDS011;8100;50.994;4.538;2024-02-16T06:24:03;6.72;;;2.10;;
15990;SDS011;8100;50.994;4.538;2024-02-16T06:26:51;4.75;;;2.30;;
15990;SDS011;8100;50.994;4.538;2024-02-16T06:29:38;4.95;;;2.10;;
15990;SDS011;8100;50.994;4.538;2024-02-16T06:32:43;5.90;;;2.38;;
15990;SDS011;8100;50.994;4.538;2024-02-16T06:35:30;4.53;;;2.42;;
15990;SDS011;8100;50.994;4.538;2024-02-16T06:38:18;4.63;;;2.28;;
15990;SDS011;8100;50.994;4.538;2024-02-16T06:41:05;9.35;;;2.15;;
15990;SDS011;8100;50.994;4.538;2024-02-16T06:43:53;9.60;;;2.63;;
15990;SDS011;8100;50.994;4.538;2024-02-16T06:46:40;6.22;;;2.50;;
15990;SDS011;8100;50.994;4.538;2024-02-16T06:49:27;10.82;;;2.55;;
15990;SDS011;8100;50.994;4.538;2024-02-16T06:52:14;5.93;;;2.63;;
15990;SDS011;8100;50.994;4.538;2024-02-16T06:55:03;7.72;;;2.50;;
15990;SDS011;8100;50.994;4.538;2024-02-16T06:57:50;5.28;;;2.50;;
15990;SDS011;8100;50.994;4.538;2024-02-16T07:00:37;5.45;;;2.35;;
15990;SDS011;8100;50.994;4.538;2024-02-16T07:06:33;11.40;;;2.50;;
15990;SDS011;8100;50.994;4.538;2024-02-16T07:09:20;7.10;;;2.75;;
15990;SDS011;8100;50.994;4.538;2024-02-16T07:12:08;5.30;;;2.17;;
15990;SDS011;8100;50.994;4.538;2024-02-16T07:14:57;9.45;;;2.97;;
15990;SDS011;8100;50.994;4.538;2024-02-16T07:18:02;7.30;;;2.53;;
15990;SDS011;8100;50.994;4.538;2024-02-16T07:20:49;5.90;;;2.63;;
15990;SDS011;8100;50.994;4.538;2024-02-16T07:23:36;4.60;;;2.40;;
15990;SDS011;8100;50.994;4.538;2024-02-16T07:26:23;7.72;;;2.33;;
15990;SDS011;8100;50.994;4.538;2024-02-16T07:29:12;7.68;;;2.45;;
15990;SDS011;8100;50.994;4.538;2024-02-16T07:32:01;7.40;;;2.40;;
15990;SDS011;8100;50.994;4.538;2024-02-16T07:34:48;4.95;;;2.30;;
15990;SDS011;8100;50.994;4.538;2024-02-16T07:37:36;7.40;;;2.80;;
15990;SDS011;8100;50.994;4.538;2024-02-16T07:43:30;7.88;;;2.70;;
15990;SDS011;8100;50.994;4.538;2024-02-16T07:46:19;8.85;;;2.63;;
15990;SDS011;8100;50.994;4.538;2024-02-16T07:52:29;4.68;;;2.40;;
15990;SDS011;8100;50.994;4.538;2024-02-16T07:58:22;10.80;;;2.65;;
15990;SDS011;8100;50.994;4.538;2024-02-16T08:01:09;7.45;;;2.63;;
15990;SDS011;8100;50.994;4.538;2024-02-16T08:04:01;10.60;;;2.83;;
15990;SDS011;8100;50.994;4.538;2024-02-16T08:07:05;10.10;;;2.80;;
15990;SDS011;8100;50.994;4.538;2024-02-16T08:09:53;9.18;;;2.67;;
15990;SDS011;8100;50.994;4.538;2024-02-16T08:12:40;7.57;;;2.47;;
15990;SDS011;8100;50.994;4.538;2024-02-16T08:15:26;7.07;;;3.00;;
15990;SDS011;8100;50.994;4.538;2024-02-16T08:18:14;6.70;;;2.72;;
15990;SDS011;8100;50.994;4.538;2024-02-16T08:21:04;8.65;;;3.03;;
15990;SDS011;8100;50.994;4.538;2024-02-16T08:23:51;5.72;;;2.30;;
15990;SDS011;8100;50.994;4.538;2024-02-16T08:26:38;8.55;;;3.00;;
15990;SDS011;8100;50.994;4.538;2024-02-16T08:29:25;7.97;;;3.03;;
15990;SDS011;8100;50.994;4.538;2024-02-16T08:32:12;6.03;;;2.42;;
15990;SDS011;8100;50.994;4.538;2024-02-16T08:34:59;4.72;;;2.38;;
15990;SDS011;8100;50.994;4.538;2024-02-16T08:37:47;5.38;;;2.92;;
15990;SDS011;8100;50.994;4.538;2024-02-16T08:40:34;8.20;;;3.15;;
15990;SDS011;8100;50.994;4.538;2024-02-16T08:43:21;7.47;;;2.95;;
15990;SDS011;8100;50.994;4.538;2024-02-16T08:46:08;9.18;;;2.78;;
15990;SDS011;8100;50.994;4.538;2024-02-16T08:48:55;5.55;;;2.90;;
15990;SDS011;8100;50.994;4.538;2024-02-16T08:51:42;9.20;;;2.67;;
15990;SDS011;8100;50.994;4.538;2024-02-16T08:54:31;10.60;;;2.58;;
15990;SDS011;8100;50.994;4.538;2024-02-16T08:57:17;9.20;;;2.60;;
15990;SDS011;8100;50.994;4.538;2024-02-16T09:00:05;7.13;;;2.90;;
15990;SDS011;8100;50.994;4.538;2024-02-16T09:02:53;6.75;;;3.33;;
15990;SDS011;8100;50.994;4.538;2024-02-16T09:05:40;10.27;;;2.95;;
15990;SDS011;8100;50.994;4.538;2024-02-16T09:08:28;10.30;;;2.95;;
15990;SDS011;8100;50.994;4.538;2024-02-16T09:11:19;8.00;;;3.25;;
15990;SDS011;8100;50.994;4.538;2024-02-16T09:14:06;8.65;;;3.22;;
15990;SDS011;8100;50.994;4.538;2024-02-16T09:16:53;7.15;;;2.95;;
15990;SDS011;8100;50.994;4.538;2024-02-16T09:19:40;8.27;;;3.22;;
15990;SDS011;8100;50.994;4.538;2024-02-16T09:22:27;8.15;;;3.20;;
15990;SDS011;8100;50.994;4.538;2024-02-16T09:25:14;8.10;;;3.00;;
15990;SDS011;8100;50.994;4.538;2024-02-16T09:28:02;9.45;;;3.20;;
15990;SDS011;8100;50.994;4.538;2024-02-16T09:30:49;6.10;;;2.97;;
15990;SDS011;8100;50.994;4.538;2024-02-16T09:33:36;8.02;;;2.90;;
15990;SDS011;8100;50.994;4.538;2024-02-16T09:36:25;7.20;;;2.90;;
15990;SDS011;8100;50.994;4.538;2024-02-16T09:39:12;11.32;;;3.25;;
15990;SDS011;8100;50.994;4.538;2024-02-16T09:41:59;8.38;;;3.10;;
15990;SDS011;8100;50.994;4.538;2024-02-16T09:44:48;7.95;;;2.80;;
15990;SDS011;8100;50.994;4.538;2024-02-16T09:47:37;8.48;;;3.08;;
15990;SDS011;8100;50.994;4.538;2024-02-16T09:50:25;7.38;;;2.70;;
15990;SDS011;8100;50.994;4.538;2024-02-16T09:53:13;9.60;;;2.80;;
15990;SDS011;8100;50.994;4.538;2024-02-16T09:56:01;7.85;;;2.83;;
15990;SDS011;8100;50.994;4.538;2024-02-16T09:58:51;9.23;;;2.63;;
15990;SDS011;8100;50.994;4.538;2024-02-16T10:01:39;7.32;;;2.90;;
15990;SDS011;8100;50.994;4.538;2024-02-16T10:04:26;10.27;;;2.65;;
15990;SDS011;8100;50.994;4.538;2024-02-16T10:07:13;10.32;;;3.45;;
15990;SDS011;8100;50.994;4.538;2024-02-16T10:10:00;8.98;;;2.65;;
15990;SDS011;8100;50.994;4.538;2024-02-16T10:12:47;5.75;;;2.75;;
15990;SDS011;8100;50.994;4.538;2024-02-16T10:15:34;6.80;;;2.90;;
15990;SDS011;8100;50.994;4.538;2024-02-16T10:18:27;8.45;;;2.88;;
15990;SDS011;8100;50.994;4.538;2024-02-16T10:21:23;7.57;;;2.95;;
15990;SDS011;8100;50.994;4.538;2024-02-16T10:24:11;5.28;;;2.60;;
15990;SDS011;8100;50.994;4.538;2024-02-16T10:26:59;6.78;;;2.78;;
15990;SDS011;8100;50.994;4.538;2024-02-16T10:29:47;12.15;;;3.20;;
15990;SDS011;8100;50.994;4.538;2024-02-16T10:32:36;6.35;;;2.90;;
15990;SDS011;8100;50.994;4.538;2024-02-16T10:35:26;7.68;;;2.75;;
15990;SDS011;8100;50.994;4.538;2024-02-16T10:38:15;6.20;;;3.10;;
15990;SDS011;8100;50.994;4.538;2024-02-16T10:41:03;7.60;;;3.05;;
15990;SDS011;8100;50.994;4.538;2024-02-16T10:43:52;6.65;;;2.80;;
15990;SDS011;8100;50.994;4.538;2024-02-16T10:46:40;11.90;;;3.17;;
15990;SDS011;8100;50.994;4.538;2024-02-16T10:49:27;7.38;;;3.50;;
15990;SDS011;8100;50.994;4.538;2024-02-16T10:52:15;6.65;;;3.00;;
15990;SDS011;8100;50.994;4.538;2024-02-16T10:55:05;9.95;;;3.17;;
15990;SDS011;8100;50.994;4.538;2024-02-16T10:57:55;10.15;;;3.30;;
15990;SDS011;8100;50.994;4.538;2024-02-16T11:00:50;8.40;;;3.17;;
15990;SDS011;8100;50.994;4.538;2024-02-16T11:03:38;8.63;;;3.40;;
15990;SDS011;8100;50.994;4.538;2024-02-16T11:06:25;9.15;;;3.10;;
15990;SDS011;8100;50.994;4.538;2024-02-16T11:09:23;14.10;;;3.75;;
15990;SDS011;8100;50.994;4.538;2024-02-16T11:12:13;9.10;;;3.92;;
15990;SDS011;8100;50.994;4.538;2024-02-16T11:15:01;7.43;;;3.40;;
15990;SDS011;8100;50.994;4.538;2024-02-16T11:17:48;9.35;;;3.67;;
15990;SDS011;8100;50.994;4.538;2024-02-16T11:20:36;8.18;;;3.80;;
15990;SDS011;8100;50.994;4.538;2024-02-16T11:23:25;7.32;;;3.38;;
15990;SDS011;8100;50.994;4.538;2024-02-16T11:26:16;12.80;;;3.88;;
15990;SDS011;8100;50.994;4.538;2024-02-16T11:29:04;11.57;;;3.70;;
15990;SDS011;8100;50.994;4.538;2024-02-16T11:31:51;7.05;;;3.33;;
15990;SDS011;8100;50.994;4.538;2024-02-16T11:34:39;10.77;;;3.97;;
15990;SDS011;8100;50.994;4.538;2024-02-16T11:37:26;7.47;;;3.90;;
15990;SDS011;8100;50.994;4.538;2024-02-16T11:40:13;11.32;;;3.88;;
15990;SDS011;8100;50.994;4.538;2024-02-16T11:43:02;8.77;;;3.75;;
15990;SDS011;8100;50.994;4.538;2024-02-16T11:45:49;8.00;;;4.00;;
15990;SDS011;8100;50.994;4.538;2024-02-16T11:48:36;13.57;;;4.05;;
15990;SDS011;8100;50.994;4.538;2024-02-16T11:51:23;12.02;;;3.42;;
15990;SDS011;8100;50.994;4.538;2024-02-16T11:54:10;7.07;;;4.07;;
15990;SDS011;8100;50.994;4.538;2024-02-16T11:56:57;6.10;;;3.47;;
15990;SDS011;8100;50.994;4.538;2024-02-16T11:59:46;5.70;;;3.05;;
15990;SDS011;8100;50.994;4.538;2024-02-16T12:02:34;5.90;;;3.15;;
15990;SDS011;8100;50.994;4.538;2024-02-16T12:05:21;6.25;;;3.13;;
15990;SDS011;8100;50.994;4.538;2024-02-16T12:08:08;6.22;;;3.15;;
15990;SDS011;8100;50.994;4.538;2024-02-16T12:10:55;5.20;;;3.05;;
15990;SDS011;8100;50.994;4.538;2024-02-16T12:13:44;7.47;;;2.97;;
15990;SDS011;8100;50.994;4.538;2024-02-16T12:16:32;5.88;;;2.67;;
15990;SDS011;8100;50.994;4.538;2024-02-16T12:19:19;5.97;;;3.25;;
15990;SDS011;8100;50.994;4.538;2024-02-16T12:22:07;6.13;;;2.53;;
15990;SDS011;8100;50.994;4.538;2024-02-16T12:24:54;4.30;;;3.13;;
15990;SDS011;8100;50.994;4.538;2024-02-16T12:27:41;4.40;;;2.63;;
15990;SDS011;8100;50.994;4.538;2024-02-16T12:30:28;4.13;;;2.50;;
15990;SDS011;8100;50.994;4.538;2024-02-16T12:33:16;3.65;;;2.28;;
15990;SDS011;8100;50.994;4.538;2024-02-16T12:36:03;4.65;;;2.90;;
15990;SDS011;8100;50.994;4.538;2024-02-16T12:38:50;4.35;;;2.65;;
15990;SDS011;8100;50.994;4.538;2024-02-16T12:41:37;3.97;;;2.63;;
15990;SDS011;8100;50.994;4.538;2024-02-16T12:44:26;5.07;;;2.83;;
15990;SDS011;8100;50.994;4.538;2024-02-16T12:47:13;4.80;;;2.65;;
15990;SDS011;8100;50.994;4.538;2024-02-16T12:50:02;5.63;;;3.20;;
15990;SDS011;8100;50.994;4.538;2024-02-16T12:52:49;4.78;;;3.05;;
15990;SDS011;8100;50.994;4.538;2024-02-16T12:55:36;4.97;;;3.13;;
15990;SDS011;8100;50.994;4.538;2024-02-16T12:58:23;6.70;;;3.30;;
15990;SDS011;8100;50.994;4.538;2024-02-16T13:01:10;4.88;;;2.90;;
15990;SDS011;8100;50.994;4.538;2024-02-16T13:03:57;7.30;;;3.30;;
15990;SDS011;8100;50.994;4.538;2024-02-16T13:06:46;9.45;;;3.78;;
15990;SDS011;8100;50.994;4.538;2024-02-16T13:09:34;7.95;;;4.32;;
15990;SDS011;8100;50.994;4.538;2024-02-16T13:12:21;6.32;;;3.97;;
15990;SDS011;8100;50.994;4.538;2024-02-16T13:15:09;10.23;;;4.15;;
15990;SDS011;8100;50.994;4.538;2024-02-16T13:17:56;6.70;;;4.35;;
15990;SDS011;8100;50.994;4.538;2024-02-16T13:20:43;6.07;;;4.40;;
15990;SDS011;8100;50.994;4.538;2024-02-16T13:23:31;7.80;;;4.88;;
15990;SDS011;8100;50.994;4.538;2024-02-16T13:26:18;6.47;;;4.95;;
15990;SDS011;8100;50.994;4.538;2024-02-16T13:29:05;9.00;;;5.80;;
15990;SDS011;8100;50.994;4.538;2024-02-16T13:31:52;8.05;;;5.57;;
15990;SDS011;8100;50.994;4.538;2024-02-16T13:34:39;8.98;;;5.78;;
15990;SDS011;8100;50.994;4.538;2024-02-16T13:37:27;9.63;;;6.00;;
15990;SDS011;8100;50.994;4.538;2024-02-16T13:40:15;9.13;;;6.28;;
15990;SDS011;8100;50.994;4.538;2024-02-16T13:43:03;10.43;;;6.65;;
15990;SDS011;8100;50.994;4.538;2024-02-16T13:45:52;8.30;;;6.00;;
15990;SDS011;8100;50.994;4.538;2024-02-16T13:48:41;10.00;;;6.60;;
15990;SDS011;8100;50.994;4.538;2024-02-16T13:51:28;8.13;;;6.10;;
15990;SDS011;8100;50.994;4.538;2024-02-16T13:54:15;7.60;;;5.40;;
15990;SDS011;8100;50.994;4.538;2024-02-16T13:57:04;8.50;;;4.78;;
15990;SDS011;8100;50.994;4.538;2024-02-16T13:59:51;5.68;;;4.13;;
15990;SDS011;8100;50.994;4.538;2024-02-16T14:02:38;7.63;;;4.47;;
15990;SDS011;8100;50.994;4.538;2024-02-16T14:05:25;5.18;;;3.80;;
15990;SDS011;8100;50.994;4.538;2024-02-16T14:08:12;5.15;;;3.50;;
15990;SDS011;8100;50.994;4.538;2024-02-16T14:11:00;4.45;;;2.85;;
15990;SDS011;8100;50.994;4.538;2024-02-16T14:13:48;4.55;;;2.92;;
15990;SDS011;8100;50.994;4.538;2024-02-16T14:16:35;4.82;;;3.00;;
15990;SDS011;8100;50.994;4.538;2024-02-16T14:19:22;3.70;;;2.55;;
15990;SDS011;8100;50.994;4.538;2024-02-16T14:22:09;4.45;;;3.20;;
15990;SDS011;8100;50.994;4.538;2024-02-16T14:24:57;3.45;;;2.72;;
15990;SDS011;8100;50.994;4.538;2024-02-16T14:27:44;4.63;;;2.30;;
15990;SDS011;8100;50.994;4.538;2024-02-16T14:30:32;10.00;;;3.25;;
15990;SDS011;8100;50.994;4.538;2024-02-16T14:33:19;4.47;;;2.85;;
15990;SDS011;8100;50.994;4.538;2024-02-16T14:36:06;3.15;;;2.17;;
15990;SDS011;8100;50.994;4.538;2024-02-16T14:38:54;3.15;;;2.15;;
15990;SDS011;8100;50.994;4.538;2024-02-16T14:41:42;3.13;;;2.30;;
15990;SDS011;8100;50.994;4.538;2024-02-16T14:44:29;4.47;;;2.70;;
15990;SDS011;8100;50.994;4.538;2024-02-16T14:47:17;3.88;;;2.47;;
15990;SDS011;8100;50.994;4.538;2024-02-16T14:50:05;3.40;;;2.28;;
15990;SDS011;8100;50.994;4.538;2024-02-16T14:52:52;3.40;;;2.47;;
15990;SDS011;8100;50.994;4.538;2024-02-16T14:55:39;3.70;;;2.42;;
15990;SDS011;8100;50.994;4.538;2024-02-16T14:58:26;3.78;;;2.97;;
15990;SDS011;8100;50.994;4.538;2024-02-16T15:01:13;5.75;;;3.58;;
15990;SDS011;8100;50.994;4.538;2024-02-16T15:04:02;3.35;;;2.65;;
15990;SDS011;8100;50.994;4.538;2024-02-16T15:06:49;3.35;;;2.78;;
15990;SDS011;8100;50.994;4.538;2024-02-16T15:09:36;4.90;;;3.30;;
15990;SDS011;8100;50.994;4.538;2024-02-16T15:12:23;4.25;;;3.33;;
15990;SDS011;8100;50.994;4.538;2024-02-16T15:15:10;4.20;;;3.20;;
15990;SDS011;8100;50.994;4.538;2024-02-16T15:17:57;7.60;;;5.10;;
15990;SDS011;8100;50.994;4.538;2024-02-16T15:20:46;8.25;;;5.35;;
15990;SDS011;8100;50.994;4.538;2024-02-16T15:23:33;9.73;;;6.10;;
15990;SDS011;8100;50.994;4.538;2024-02-16T15:26:20;11.25;;;7.45;;
15990;SDS011;8100;50.994;4.538;2024-02-16T15:29:07;10.75;;;7.45;;
15990;SDS011;8100;50.994;4.538;2024-02-16T15:31:54;11.98;;;7.25;;
15990;SDS011;8100;50.994;4.538;2024-02-16T15:34:41;10.35;;;7.45;;
15990;SDS011;8100;50.994;4.538;2024-02-16T15:37:33;10.23;;;7.10;;
15990;SDS011;8100;50.994;4.538;2024-02-16T15:40:20;11.85;;;6.80;;
15990;SDS011;8100;50.994;4.538;2024-02-16T15:43:07;9.40;;;6.70;;
15990;SDS011;8100;50.994;4.538;2024-02-16T15:45:55;9.43;;;6.25;;
15990;SDS011;8100;50.994;4.538;2024-02-16T15:48:42;8.68;;;5.57;;
15990;SDS011;8100;50.994;4.538;2024-02-16T15:51:31;8.75;;;5.35;;
15990;SDS011;8100;50.994;4.538;2024-02-16T15:54:19;9.18;;;5.47;;
15990;SDS011;8100;50.994;4.538;2024-02-16T15:57:10;8.77;;;5.70;;
15990;SDS011;8100;50.994;4.538;2024-02-16T15:59:58;9.57;;;5.60;;
15990;SDS011;8100;50.994;4.538;2024-02-16T16:02:45;9.13;;;5.60;;
15990;SDS011;8100;50.994;4.538;2024-02-16T16:05:32;9.45;;;5.78;;
15990;SDS011;8100;50.994;4.538;2024-02-16T16:08:20;11.73;;;6.00;;
15990;SDS011;8100;50.994;4.538;2024-02-16T16:11:08;8.35;;;4.93;;
15990;SDS011;8100;50.994;4.538;2024-02-16T16:13:55;8.25;;;4.95;;
15990;SDS011;8100;50.994;4.538;2024-02-16T16:16:42;5.30;;;3.85;;
15990;SDS011;8100;50.994;4.538;2024-02-16T16:19:29;6.35;;;4.25;;
15990;SDS011;8100;50.994;4.538;2024-02-16T16:22:16;5.60;;;3.53;;
15990;SDS011;8100;50.994;4.538;2024-02-16T16:25:04;4.65;;;2.63;;
15990;SDS011;8100;50.994;4.538;2024-02-16T16:27:53;4.93;;;3.08;;
15990;SDS011;8100;50.994;4.538;2024-02-16T16:30:40;4.03;;;2.42;;
15990;SDS011;8100;50.994;4.538;2024-02-16T16:33:27;4.82;;;2.80;;
15990;SDS011;8100;50.994;4.538;2024-02-16T16:36:14;3.90;;;2.45;;
15990;SDS011;8100;50.994;4.538;2024-02-16T16:39:01;3.42;;;2.45;;
15990;SDS011;8100;50.994;4.538;2024-02-16T16:41:48;3.58;;;2.20;;
15990;SDS011;8100;50.994;4.538;2024-02-16T16:44:37;3.67;;;2.30;;
15990;SDS011;8100;50.994;4.538;2024-02-16T16:47:24;4.43;;;2.33;;
15990;SDS011;8100;50.994;4.538;2024-02-16T16:50:11;4.57;;;2.53;;
15990;SDS011;8100;50.994;4.538;2024-02-16T16:52:58;3.95;;;2.50;;
15990;SDS011;8100;50.994;4.538;2024-02-16T16:55:45;4.47;;;2.70;;
15990;SDS011;8100;50.994;4.538;2024-02-16T16:58:32;3.95;;;3.10;;
15990;SDS011;8100;50.994;4.538;2024-02-16T17:01:20;4.57;;;2.63;;
15990;SDS011;8100;50.994;4.538;2024-02-16T17:04:07;5.55;;;2.80;;
15990;SDS011;8100;50.994;4.538;2024-02-16T17:06:54;3.35;;;2.60;;
15990;SDS011;8100;50.994;4.538;2024-02-16T17:09:41;7.00;;;3.20;;
15990;SDS011;8100;50.994;4.538;2024-02-16T17:12:28;4.95;;;3.30;;
15990;SDS011;8100;50.994;4.538;2024-02-16T17:15:15;4.82;;;2.95;;
15990;SDS011;8100;50.994;4.538;2024-02-16T17:18:05;6.03;;;3.13;;
15990;SDS011;8100;50.994;4.538;2024-02-16T17:20:52;6.32;;;3.00;;
15990;SDS011;8100;50.994;4.538;2024-02-16T17:23:39;4.40;;;2.72;;
15990;SDS011;8100;50.994;4.538;2024-02-16T17:26:26;5.22;;;2.88;;
15990;SDS011;8100;50.994;4.538;2024-02-16T17:29:13;7.50;;;3.03;;
15990;SDS011;8100;50.994;4.538;2024-02-16T17:32:00;5.75;;;2.95;;
15990;SDS011;8100;50.994;4.538;2024-02-16T17:34:48;3.33;;;2.60;;
15990;SDS011;8100;50.994;4.538;2024-02-16T17:37:37;6.18;;;2.63;;
15990;SDS011;8100;50.994;4.538;2024-02-16T17:40:24;4.95;;;3.10;;
15990;SDS011;8100;50.994;4.538;2024-02-16T17:43:11;5.55;;;3.17;;